sensor_id;sensor_type;location;lat;lon;timestamp;pressure;altitude;pressure_sealevel;temperature;humidity
18850;BME280;4989;48.772;9.154;2023-12-28T00:03:32;98066.94;;;9.79;47.92
18850;BME280;4989;48.772;9.154;2023-12-28T00:08:35;98071.09;;;9.87;47.94
18850;BME280;4989;48.772;9.154;2023-12-28T00:13:37;98081.94;;;9.87;47.55
18850;BME280;4989;48.772;9.154;2023-12-28T00:18:40;98095.34;;;9.74;48.29
18850;BME280;4989;48.772;9.154;2023-12-28T00:23:43;98092.44;;;9.85;48.14
18850;BME280;4989;48.772;9.154;2023-12-28T00:28:45;98102.59;;;9.81;48.54
18850;BME280;4989;48.772;9.154;2023-12-28T00:33:48;98107.47;;;9.66;48.62
18850;BME280;4989;48.772;9.154;2023-12-28T00:38:53;98111.53;;;9.54;49.58
18850;BME280;4989;48.772;9.154;2023-12-28T00:43:55;98107.75;;;9.48;49.72
18850;BME280;4989;48.772;9.154;2023-12-28T00:48:58;98118.25;;;9.46;50.59
18850;BME280;4989;48.772;9.154;2023-12-28T00:54:01;98102.78;;;9.43;50.10
18850;BME280;4989;48.772;9.154;2023-12-28T00:59:04;98102.47;;;9.37;49.97
18850;BME280;4989;48.772;9.154;2023-12-28T01:04:06;98100.25;;;9.32;50.34
18850;BME280;4989;48.772;9.154;2023-12-28T01:09:09;98116.66;;;9.22;50.61
18850;BME280;4989;48.772;9.154;2023-12-28T01:14:12;98114.75;;;9.18;50.50
18850;BME280;4989;48.772;9.154;2023-12-28T01:19:14;98124.69;;;9.29;51.54
18850;BME280;4989;48.772;9.154;2023-12-28T01:24:17;98132.38;;;9.34;53.09
18850;BME280;4989;48.772;9.154;2023-12-28T01:29:20;98131.47;;;9.17;53.53
18850;BME280;4989;48.772;9.154;2023-12-28T01:34:23;98127.66;;;8.46;55.53
18850;BME280;4989;48.772;9.154;2023-12-28T01:39:26;98130.78;;;8.41;54.77
18850;BME280;4989;48.772;9.154;2023-12-28T01:44:28;98140.94;;;8.30;56.83
18850;BME280;4989;48.772;9.154;2023-12-28T01:49:31;98154.72;;;8.46;54.67
18850;BME280;4989;48.772;9.154;2023-12-28T01:54:35;98161.69;;;8.47;56.63
18850;BME280;4989;48.772;9.154;2023-12-28T01:59:40;98150.72;;;8.16;56.76
18850;BME280;4989;48.772;9.154;2023-12-28T02:04:44;98157.41;;;8.49;54.21
18850;BME280;4989;48.772;9.154;2023-12-28T02:09:47;98162.75;;;8.57;54.67
18850;BME280;4989;48.772;9.154;2023-12-28T02:14:50;98178.59;;;8.58;55.35
18850;BME280;4989;48.772;9.154;2023-12-28T02:19:56;98173.78;;;8.39;57.28
18850;BME280;4989;48.772;9.154;2023-12-28T02:25:08;98188.44;;;8.38;55.63
18850;BME280;4989;48.772;9.154;2023-12-28T02:30:11;98169.47;;;8.38;56.55
18850;BME280;4989;48.772;9.154;2023-12-28T02:36:04;98167.53;;;8.42;55.29
18850;BME280;4989;48.772;9.154;2023-12-28T02:40:48;98167.81;;;8.55;57.63
18850;BME280;4989;48.772;9.154;2023-12-28T02:45:51;98161.53;;;8.61;55.74
18850;BME280;4989;48.772;9.154;2023-12-28T02:50:54;98166.16;;;8.64;58.49
18850;BME280;4989;48.772;9.154;2023-12-28T02:55:56;98166.72;;;8.83;59.18
18850;BME280;4989;48.772;9.154;2023-12-28T03:00:59;98166.41;;;8.36;60.08
18850;BME280;4989;48.772;9.154;2023-12-28T03:06:02;98169.75;;;8.09;62.21
18850;BME280;4989;48.772;9.154;2023-12-28T03:11:06;98163.44;;;8.23;62.94
18850;BME280;4989;48.772;9.154;2023-12-28T03:16:08;98159.91;;;8.67;62.17
18850;BME280;4989;48.772;9.154;2023-12-28T03:21:11;98160.16;;;8.80;63.11
18850;BME280;4989;48.772;9.154;2023-12-28T03:26:14;98165.94;;;8.48;62.49
18850;BME280;4989;48.772;9.154;2023-12-28T03:31:16;98165.03;;;8.17;62.40
18850;BME280;4989;48.772;9.154;2023-12-28T03:36:19;98171.41;;;7.92;63.88
18850;BME280;4989;48.772;9.154;2023-12-28T03:41:22;98175.22;;;8.02;63.38
18850;BME280;4989;48.772;9.154;2023-12-28T03:46:25;98163.06;;;7.72;59.91
18850;BME280;4989;48.772;9.154;2023-12-28T03:51:29;98142.47;;;8.31;57.54
18850;BME280;4989;48.772;9.154;2023-12-28T03:56:31;98147.56;;;8.66;56.19
18850;BME280;4989;48.772;9.154;2023-12-28T04:01:35;98125.75;;;8.77;55.19
18850;BME280;4989;48.772;9.154;2023-12-28T04:06:38;98122.38;;;9.00;57.58
18850;BME280;4989;48.772;9.154;2023-12-28T04:11:41;98126.84;;;9.14;62.13
18850;BME280;4989;48.772;9.154;2023-12-28T04:16:45;98125.69;;;9.42;61.04
18850;BME280;4989;48.772;9.154;2023-12-28T04:21:48;98145.28;;;9.53;61.08
18850;BME280;4989;48.772;9.154;2023-12-28T04:26:50;98136.13;;;9.13;57.20
18850;BME280;4989;48.772;9.154;2023-12-28T04:31:53;98132.41;;;9.03;55.93
18850;BME280;4989;48.772;9.154;2023-12-28T04:36:56;98124.66;;;9.32;53.21
18850;BME280;4989;48.772;9.154;2023-12-28T04:41:58;98119.25;;;9.56;52.44
18850;BME280;4989;48.772;9.154;2023-12-28T04:47:01;98115.66;;;9.90;52.83
18850;BME280;4989;48.772;9.154;2023-12-28T04:52:05;98108.25;;;9.90;54.09
18850;BME280;4989;48.772;9.154;2023-12-28T04:57:08;98112.13;;;10.13;57.50
18850;BME280;4989;48.772;9.154;2023-12-28T05:02:11;98105.88;;;10.16;56.88
18850;BME280;4989;48.772;9.154;2023-12-28T05:07:13;98116.63;;;9.76;57.36
18850;BME280;4989;48.772;9.154;2023-12-28T05:12:16;98130.56;;;9.78;57.20
18850;BME280;4989;48.772;9.154;2023-12-28T05:17:19;98130.66;;;9.71;56.68
18850;BME280;4989;48.772;9.154;2023-12-28T05:22:21;98127.25;;;8.82;58.20
18850;BME280;4989;48.772;9.154;2023-12-28T05:27:24;98125.56;;;8.91;59.08
18850;BME280;4989;48.772;9.154;2023-12-28T05:32:27;98122.88;;;8.57;60.74
18850;BME280;4989;48.772;9.154;2023-12-28T05:37:30;98143.50;;;8.47;61.22
18850;BME280;4989;48.772;9.154;2023-12-28T05:42:32;98157.34;;;8.91;63.53
18850;BME280;4989;48.772;9.154;2023-12-28T05:47:35;98157.88;;;9.09;60.57
18850;BME280;4989;48.772;9.154;2023-12-28T05:52:38;98163.94;;;8.52;62.13
18850;BME280;4989;48.772;9.154;2023-12-28T05:57:40;98171.81;;;8.39;62.60
18850;BME280;4989;48.772;9.154;2023-12-28T06:02:43;98177.13;;;8.50;63.55
18850;BME280;4989;48.772;9.154;2023-12-28T06:07:46;98178.97;;;8.60;63.96
18850;BME280;4989;48.772;9.154;2023-12-28T06:12:48;98184.69;;;8.69;63.28
18850;BME280;4989;48.772;9.154;2023-12-28T06:17:51;98192.94;;;8.93;63.60
18850;BME280;4989;48.772;9.154;2023-12-28T06:22:54;98196.09;;;8.88;64.00
18850;BME280;4989;48.772;9.154;2023-12-28T06:27:57;98199.94;;;8.90;63.99
18850;BME280;4989;48.772;9.154;2023-12-28T06:33:00;98195.19;;;8.98;64.47
18850;BME280;4989;48.772;9.154;2023-12-28T06:38:03;98191.47;;;8.85;64.48
18850;BME280;4989;48.772;9.154;2023-12-28T06:43:13;98193.59;;;9.35;61.85
18850;BME280;4989;48.772;9.154;2023-12-28T06:48:16;98200.25;;;9.57;60.31
18850;BME280;4989;48.772;9.154;2023-12-28T06:53:19;98206.66;;;9.71;60.16
18850;BME280;4989;48.772;9.154;2023-12-28T06:58:21;98200.97;;;9.89;60.07
18850;BME280;4989;48.772;9.154;2023-12-28T07:03:24;98200.59;;;10.14;60.77
18850;BME280;4989;48.772;9.154;2023-12-28T07:08:27;98210.19;;;10.18;59.93
18850;BME280;4989;48.772;9.154;2023-12-28T07:13:31;98213.56;;;10.29;59.83
18850;BME280;4989;48.772;9.154;2023-12-28T07:18:35;98212.66;;;10.36;61.10
18850;BME280;4989;48.772;9.154;2023-12-28T07:23:38;98223.28;;;10.50;60.93
18850;BME280;4989;48.772;9.154;2023-12-28T07:28:41;98228.25;;;10.32;63.63
18850;BME280;4989;48.772;9.154;2023-12-28T07:33:45;98223.72;;;10.22;63.51
18850;BME280;4989;48.772;9.154;2023-12-28T07:38:48;98237.19;;;10.05;64.43
18850;BME280;4989;48.772;9.154;2023-12-28T07:43:51;98238.72;;;10.06;63.77
18850;BME280;4989;48.772;9.154;2023-12-28T07:48:53;98230.41;;;10.41;64.32
18850;BME280;4989;48.772;9.154;2023-12-28T07:53:56;98233.56;;;10.39;65.11
18850;BME280;4989;48.772;9.154;2023-12-28T07:58:59;98248.44;;;10.78;63.72
18850;BME280;4989;48.772;9.154;2023-12-28T08:04:02;98255.41;;;10.55;64.03
18850;BME280;4989;48.772;9.154;2023-12-28T08:09:04;98257.56;;;10.44;65.68
18850;BME280;4989;48.772;9.154;2023-12-28T08:14:07;98261.03;;;10.18;66.94
18850;BME280;4989;48.772;9.154;2023-12-28T08:19:10;98267.00;;;10.36;66.78
18850;BME280;4989;48.772;9.154;2023-12-28T08:24:13;98252.84;;;10.21;66.70
18850;BME280;4989;48.772;9.154;2023-12-28T08:29:16;98261.16;;;10.11;68.17
18850;BME280;4989;48.772;9.154;2023-12-28T08:34:20;98256.00;;;10.43;67.58
18850;BME280;4989;48.772;9.154;2023-12-28T08:39:23;98262.84;;;10.28;69.50
18850;BME280;4989;48.772;9.154;2023-12-28T08:44:26;98266.53;;;10.14;70.97
18850;BME280;4989;48.772;9.154;2023-12-28T08:49:28;98272.81;;;10.07;71.36
18850;BME280;4989;48.772;9.154;2023-12-28T08:54:32;98257.25;;;10.12;70.90
18850;BME280;4989;48.772;9.154;2023-12-28T08:59:39;98249.25;;;10.28;71.90
18850;BME280;4989;48.772;9.154;2023-12-28T09:04:42;98238.84;;;10.50;68.86
18850;BME280;4989;48.772;9.154;2023-12-28T09:09:45;98247.94;;;10.83;66.28
18850;BME280;4989;48.772;9.154;2023-12-28T09:14:48;98253.47;;;10.99;66.93
18850;BME280;4989;48.772;9.154;2023-12-28T09:19:50;98240.16;;;11.05;68.63
18850;BME280;4989;48.772;9.154;2023-12-28T09:24:53;98257.66;;;10.84;71.96
18850;BME280;4989;48.772;9.154;2023-12-28T09:29:56;98262.34;;;10.80;67.61
18850;BME280;4989;48.772;9.154;2023-12-28T09:34:59;98272.72;;;11.09;66.77
18850;BME280;4989;48.772;9.154;2023-12-28T09:40:02;98274.25;;;11.10;68.34
18850;BME280;4989;48.772;9.154;2023-12-28T09:45:06;98288.22;;;11.12;68.52
18850;BME280;4989;48.772;9.154;2023-12-28T09:50:09;98276.34;;;11.22;68.96
18850;BME280;4989;48.772;9.154;2023-12-28T09:55:13;98278.75;;;11.20;69.86
18850;BME280;4989;48.772;9.154;2023-12-28T10:00:16;98277.91;;;11.23;71.10
18850;BME280;4989;48.772;9.154;2023-12-28T10:05:19;98282.38;;;11.33;72.31
18850;BME280;4989;48.772;9.154;2023-12-28T10:10:21;98284.03;;;11.27;71.01
18850;BME280;4989;48.772;9.154;2023-12-28T10:15:25;98282.72;;;11.35;71.25
18850;BME280;4989;48.772;9.154;2023-12-28T10:20:28;98286.13;;;11.39;70.83
18850;BME280;4989;48.772;9.154;2023-12-28T10:25:32;98278.31;;;11.41;71.55
18850;BME280;4989;48.772;9.154;2023-12-28T10:30:35;98275.38;;;11.52;71.08
18850;BME280;4989;48.772;9.154;2023-12-28T10:35:38;98265.59;;;11.55;70.34
18850;BME280;4989;48.772;9.154;2023-12-28T10:40:41;98271.81;;;11.55;71.63
18850;BME280;4989;48.772;9.154;2023-12-28T10:45:47;98264.56;;;11.68;71.05
18850;BME280;4989;48.772;9.154;2023-12-28T10:50:53;98260.81;;;11.79;71.86
18850;BME280;4989;48.772;9.154;2023-12-28T10:56:28;98249.91;;;11.99;72.06
18850;BME280;4989;48.772;9.154;2023-12-28T11:01:37;98248.38;;;12.14;71.28
18850;BME280;4989;48.772;9.154;2023-12-28T11:06:42;98240.38;;;12.07;72.56
18850;BME280;4989;48.772;9.154;2023-12-28T11:11:46;98232.91;;;12.11;74.74
18850;BME280;4989;48.772;9.154;2023-12-28T11:16:52;98236.81;;;12.26;73.51
18850;BME280;4989;48.772;9.154;2023-12-28T11:21:56;98231.94;;;12.34;74.03
18850;BME280;4989;48.772;9.154;2023-12-28T11:26:59;98229.47;;;12.23;74.92
18850;BME280;4989;48.772;9.154;2023-12-28T11:32:02;98215.34;;;12.12;76.26
18850;BME280;4989;48.772;9.154;2023-12-28T11:37:07;98212.59;;;12.28;77.32
18850;BME280;4989;48.772;9.154;2023-12-28T11:42:11;98214.31;;;12.38;77.42
18850;BME280;4989;48.772;9.154;2023-12-28T11:47:16;98204.44;;;12.45;76.69
18850;BME280;4989;48.772;9.154;2023-12-28T11:52:29;98203.06;;;12.36;76.91
18850;BME280;4989;48.772;9.154;2023-12-28T11:57:32;98197.91;;;12.26;77.35
18850;BME280;4989;48.772;9.154;2023-12-28T12:02:35;98209.38;;;12.33;78.45
18850;BME280;4989;48.772;9.154;2023-12-28T12:07:38;98209.38;;;12.33;77.70
18850;BME280;4989;48.772;9.154;2023-12-28T12:12:40;98201.19;;;12.33;77.30
18850;BME280;4989;48.772;9.154;2023-12-28T12:17:44;98189.94;;;12.31;78.17
18850;BME280;4989;48.772;9.154;2023-12-28T12:22:47;98189.78;;;12.38;78.63
18850;BME280;4989;48.772;9.154;2023-12-28T12:27:50;98182.31;;;12.55;77.18
18850;BME280;4989;48.772;9.154;2023-12-28T12:32:53;98190.97;;;12.83;76.40
18850;BME280;4989;48.772;9.154;2023-12-28T12:37:56;98175.16;;;12.91;77.45
18850;BME280;4989;48.772;9.154;2023-12-28T12:42:59;98166.59;;;13.05;75.55
18850;BME280;4989;48.772;9.154;2023-12-28T12:48:03;98170.16;;;12.89;77.21
18850;BME280;4989;48.772;9.154;2023-12-28T12:53:07;98164.63;;;12.76;77.90
18850;BME280;4989;48.772;9.154;2023-12-28T12:58:10;98170.50;;;12.62;78.77
18850;BME280;4989;48.772;9.154;2023-12-28T13:03:15;98165.97;;;12.55;76.86
18850;BME280;4989;48.772;9.154;2023-12-28T13:08:18;98164.34;;;12.58;77.51
18850;BME280;4989;48.772;9.154;2023-12-28T13:13:21;98169.38;;;12.59;77.37
18850;BME280;4989;48.772;9.154;2023-12-28T13:18:23;98172.22;;;12.56;78.11
18850;BME280;4989;48.772;9.154;2023-12-28T13:23:26;98178.13;;;12.67;79.04
18850;BME280;4989;48.772;9.154;2023-12-28T13:28:31;98187.06;;;12.38;81.32
18850;BME280;4989;48.772;9.154;2023-12-28T13:33:34;98180.75;;;12.25;83.25
18850;BME280;4989;48.772;9.154;2023-12-28T13:38:36;98186.56;;;12.11;83.37
18850;BME280;4989;48.772;9.154;2023-12-28T13:43:39;98179.31;;;12.21;83.27
18850;BME280;4989;48.772;9.154;2023-12-28T13:48:42;98177.19;;;12.12;83.32
18850;BME280;4989;48.772;9.154;2023-12-28T13:53:45;98174.03;;;11.81;86.26
18850;BME280;4989;48.772;9.154;2023-12-28T13:58:48;98176.25;;;12.19;88.18
18850;BME280;4989;48.772;9.154;2023-12-28T14:03:51;98165.94;;;12.10;91.19
18850;BME280;4989;48.772;9.154;2023-12-28T14:08:54;98171.41;;;11.94;91.03
18850;BME280;4989;48.772;9.154;2023-12-28T14:13:57;98163.56;;;12.12;91.38
18850;BME280;4989;48.772;9.154;2023-12-28T14:19:00;98163.41;;;12.03;93.41
18850;BME280;4989;48.772;9.154;2023-12-28T14:24:03;98171.56;;;12.35;89.97
18850;BME280;4989;48.772;9.154;2023-12-28T14:29:06;98168.91;;;12.77;89.33
18850;BME280;4989;48.772;9.154;2023-12-28T14:34:09;98177.25;;;12.70;98.14
18850;BME280;4989;48.772;9.154;2023-12-28T14:39:12;98176.66;;;12.33;94.41
18850;BME280;4989;48.772;9.154;2023-12-28T14:44:15;98160.81;;;12.45;88.94
18850;BME280;4989;48.772;9.154;2023-12-28T14:49:18;98163.66;;;12.08;91.05
18850;BME280;4989;48.772;9.154;2023-12-28T14:54:20;98163.28;;;11.74;94.95
18850;BME280;4989;48.772;9.154;2023-12-28T14:59:23;98163.59;;;11.96;97.24
18850;BME280;4989;48.772;9.154;2023-12-28T15:04:26;98161.19;;;11.81;94.92
18850;BME280;4989;48.772;9.154;2023-12-28T15:09:28;98151.94;;;11.59;94.49
18850;BME280;4989;48.772;9.154;2023-12-28T15:14:32;98149.03;;;11.50;98.80
18850;BME280;4989;48.772;9.154;2023-12-28T15:19:35;98144.31;;;11.54;94.04
18850;BME280;4989;48.772;9.154;2023-12-28T15:24:38;98140.28;;;11.26;96.73
18850;BME280;4989;48.772;9.154;2023-12-28T15:29:41;98152.38;;;11.05;97.22
18850;BME280;4989;48.772;9.154;2023-12-28T15:34:44;98149.03;;;11.33;99.04
18850;BME280;4989;48.772;9.154;2023-12-28T15:39:46;98156.28;;;11.40;95.34
18850;BME280;4989;48.772;9.154;2023-12-28T15:44:49;98166.28;;;11.07;96.54
18850;BME280;4989;48.772;9.154;2023-12-28T15:49:52;98163.44;;;10.94;98.56
18850;BME280;4989;48.772;9.154;2023-12-28T15:54:54;98158.72;;;11.34;95.46
18850;BME280;4989;48.772;9.154;2023-12-28T15:59:57;98154.66;;;11.06;95.84
18850;BME280;4989;48.772;9.154;2023-12-28T16:05:13;98155.16;;;10.81;97.82
18850;BME280;4989;48.772;9.154;2023-12-28T16:10:16;98156.59;;;11.06;100.00
18850;BME280;4989;48.772;9.154;2023-12-28T16:15:19;98145.09;;;11.18;94.77
18850;BME280;4989;48.772;9.154;2023-12-28T16:20:25;98146.84;;;10.88;96.09
18850;BME280;4989;48.772;9.154;2023-12-28T16:25:28;98158.84;;;11.11;95.65
18850;BME280;4989;48.772;9.154;2023-12-28T16:30:31;98148.41;;;10.69;97.89
18850;BME280;4989;48.772;9.154;2023-12-28T16:35:34;98149.16;;;10.50;100.00
18850;BME280;4989;48.772;9.154;2023-12-28T16:40:36;98148.78;;;10.48;100.00
18850;BME280;4989;48.772;9.154;2023-12-28T16:45:39;98148.88;;;10.44;100.00
18850;BME280;4989;48.772;9.154;2023-12-28T16:50:42;98163.16;;;10.48;100.00
18850;BME280;4989;48.772;9.154;2023-12-28T16:55:45;98154.44;;;10.57;100.00
18850;BME280;4989;48.772;9.154;2023-12-28T17:00:47;98158.06;;;10.50;100.00
18850;BME280;4989;48.772;9.154;2023-12-28T17:05:50;98148.03;;;10.87;98.51
18850;BME280;4989;48.772;9.154;2023-12-28T17:10:54;98133.53;;;10.94;100.00
18850;BME280;4989;48.772;9.154;2023-12-28T17:15:57;98128.72;;;11.02;96.17
18850;BME280;4989;48.772;9.154;2023-12-28T17:21:00;98132.97;;;10.83;97.62
18850;BME280;4989;48.772;9.154;2023-12-28T17:26:16;98129.13;;;11.00;97.84
18850;BME280;4989;48.772;9.154;2023-12-28T17:31:23;98112.06;;;10.99;97.90
18850;BME280;4989;48.772;9.154;2023-12-28T17:36:30;98113.34;;;10.75;100.00
18850;BME280;4989;48.772;9.154;2023-12-28T17:41:37;98120.50;;;10.85;100.00
18850;BME280;4989;48.772;9.154;2023-12-28T17:46:50;98120.28;;;10.76;100.00
18850;BME280;4989;48.772;9.154;2023-12-28T17:51:56;98123.09;;;10.72;100.00
18850;BME280;4989;48.772;9.154;2023-12-28T17:56:59;98132.78;;;10.73;100.00
18850;BME280;4989;48.772;9.154;2023-12-28T18:02:03;98136.19;;;10.97;100.00
18850;BME280;4989;48.772;9.154;2023-12-28T18:07:06;98134.88;;;10.66;100.00
18850;BME280;4989;48.772;9.154;2023-12-28T18:12:13;98127.34;;;10.53;100.00
18850;BME280;4989;48.772;9.154;2023-12-28T18:17:15;98137.41;;;10.33;100.00
18850;BME280;4989;48.772;9.154;2023-12-28T18:22:18;98141.31;;;10.32;100.00
18850;BME280;4989;48.772;9.154;2023-12-28T18:27:21;98135.19;;;10.28;100.00
18850;BME280;4989;48.772;9.154;2023-12-28T18:32:24;98141.03;;;10.46;100.00
18850;BME280;4989;48.772;9.154;2023-12-28T18:37:26;98155.81;;;10.45;100.00
18850;BME280;4989;48.772;9.154;2023-12-28T18:42:29;98155.44;;;10.67;100.00
18850;BME280;4989;48.772;9.154;2023-12-28T18:47:32;98149.91;;;10.70;100.00
18850;BME280;4989;48.772;9.154;2023-12-28T18:52:35;98153.72;;;10.33;100.00
18850;BME280;4989;48.772;9.154;2023-12-28T18:57:38;98161.91;;;10.53;100.00
18850;BME280;4989;48.772;9.154;2023-12-28T19:02:41;98167.56;;;10.82;100.00
18850;BME280;4989;48.772;9.154;2023-12-28T19:07:44;98163.38;;;10.58;100.00
18850;BME280;4989;48.772;9.154;2023-12-28T19:12:46;98163.06;;;10.32;100.00
18850;BME280;4989;48.772;9.154;2023-12-28T19:17:50;98170.72;;;10.37;100.00
18850;BME280;4989;48.772;9.154;2023-12-28T19:22:53;98184.88;;;10.48;100.00
18850;BME280;4989;48.772;9.154;2023-12-28T19:27:55;98181.38;;;10.91;100.00
18850;BME280;4989;48.772;9.154;2023-12-28T19:32:58;98181.25;;;10.98;100.00
18850;BME280;4989;48.772;9.154;2023-12-28T19:38:02;98192.06;;;10.59;100.00
18850;BME280;4989;48.772;9.154;2023-12-28T19:43:04;98184.00;;;11.15;100.00
18850;BME280;4989;48.772;9.154;2023-12-28T19:48:07;98183.22;;;10.54;100.00
18850;BME280;4989;48.772;9.154;2023-12-28T19:53:13;98179.06;;;10.50;100.00
18850;BME280;4989;48.772;9.154;2023-12-28T19:58:18;98185.34;;;10.43;100.00
18850;BME280;4989;48.772;9.154;2023-12-28T20:03:21;98184.63;;;10.63;100.00
18850;BME280;4989;48.772;9.154;2023-12-28T20:08:23;98177.31;;;10.60;100.00
18850;BME280;4989;48.772;9.154;2023-12-28T20:13:26;98172.00;;;10.52;100.00
18850;BME280;4989;48.772;9.154;2023-12-28T20:18:30;98175.22;;;10.47;100.00
18850;BME280;4989;48.772;9.154;2023-12-28T20:23:33;98174.09;;;10.65;100.00
18850;BME280;4989;48.772;9.154;2023-12-28T20:28:35;98171.38;;;10.45;100.00
18850;BME280;4989;48.772;9.154;2023-12-28T20:33:38;98164.66;;;10.29;100.00
18850;BME280;4989;48.772;9.154;2023-12-28T20:38:41;98165.56;;;10.19;100.00
18850;BME280;4989;48.772;9.154;2023-12-28T20:43:44;98158.28;;;9.89;100.00
18850;BME280;4989;48.772;9.154;2023-12-28T20:48:47;98148.41;;;10.02;100.00
18850;BME280;4989;48.772;9.154;2023-12-28T20:53:50;98153.94;;;9.95;100.00
18850;BME280;4989;48.772;9.154;2023-12-28T20:58:53;98173.66;;;10.46;100.00
18850;BME280;4989;48.772;9.154;2023-12-28T21:03:55;98152.66;;;10.90;100.00
18850;BME280;4989;48.772;9.154;2023-12-28T21:08:58;98157.50;;;11.19;100.00
18850;BME280;4989;48.772;9.154;2023-12-28T21:14:01;98142.28;;;10.65;100.00
18850;BME280;4989;48.772;9.154;2023-12-28T21:19:09;98143.16;;;10.59;100.00
18850;BME280;4989;48.772;9.154;2023-12-28T21:24:13;98138.13;;;10.37;100.00
18850;BME280;4989;48.772;9.154;2023-12-28T21:29:16;98134.84;;;10.46;100.00
18850;BME280;4989;48.772;9.154;2023-12-28T21:34:19;98144.09;;;10.28;100.00
18850;BME280;4989;48.772;9.154;2023-12-28T21:39:22;98131.38;;;10.22;100.00
18850;BME280;4989;48.772;9.154;2023-12-28T21:44:25;98122.41;;;10.01;100.00
18850;BME280;4989;48.772;9.154;2023-12-28T21:49:28;98128.31;;;9.96;100.00
18850;BME280;4989;48.772;9.154;2023-12-28T21:54:30;98132.56;;;9.97;100.00
18850;BME280;4989;48.772;9.154;2023-12-28T21:59:33;98126.31;;;10.00;100.00
18850;BME280;4989;48.772;9.154;2023-12-28T22:04:36;98124.06;;;9.95;100.00
18850;BME280;4989;48.772;9.154;2023-12-28T22:09:39;98119.72;;;9.78;100.00
18850;BME280;4989;48.772;9.154;2023-12-28T22:14:42;98129.13;;;9.70;100.00
18850;BME280;4989;48.772;9.154;2023-12-28T22:19:44;98134.56;;;9.70;100.00
18850;BME280;4989;48.772;9.154;2023-12-28T22:24:47;98130.66;;;9.71;100.00
18850;BME280;4989;48.772;9.154;2023-12-28T22:29:50;98127.31;;;9.63;100.00
18850;BME280;4989;48.772;9.154;2023-12-28T22:34:53;98123.56;;;9.80;100.00
18850;BME280;4989;48.772;9.154;2023-12-28T22:39:56;98125.75;;;9.62;100.00
18850;BME280;4989;48.772;9.154;2023-12-28T22:45:00;98124.34;;;9.54;100.00
18850;BME280;4989;48.772;9.154;2023-12-28T22:50:03;98109.28;;;9.49;100.00
18850;BME280;4989;48.772;9.154;2023-12-28T22:55:06;98117.03;;;9.51;100.00
18850;BME280;4989;48.772;9.154;2023-12-28T23:00:09;98108.78;;;9.58;100.00
18850;BME280;4989;48.772;9.154;2023-12-28T23:05:25;98100.69;;;9.54;100.00
18850;BME280;4989;48.772;9.154;2023-12-28T23:10:28;98093.50;;;9.68;100.00
18850;BME280;4989;48.772;9.154;2023-12-28T23:15:31;98099.88;;;9.57;100.00
18850;BME280;4989;48.772;9.154;2023-12-28T23:20:34;98090.47;;;9.62;100.00
18850;BME280;4989;48.772;9.154;2023-12-28T23:25:37;98088.25;;;9.57;100.00
18850;BME280;4989;48.772;9.154;2023-12-28T23:30:39;98088.31;;;9.53;100.00
18850;BME280;4989;48.772;9.154;2023-12-28T23:35:42;98083.47;;;9.64;100.00
18850;BME280;4989;48.772;9.154;2023-12-28T23:40:45;98103.34;;;9.81;100.00
18850;BME280;4989;48.772;9.154;2023-12-28T23:45:51;98094.78;;;9.83;100.00
18850;BME280;4989;48.772;9.154;2023-12-28T23:50:55;98083.84;;;9.90;100.00
18850;BME280;4989;48.772;9.154;2023-12-28T23:55:57;98073.75;;;10.34;100.00
